Time;durP1;ratioP1;P1;durP2;ratioP2;P2;SDS_P1;SDS_P2;PMS_P1;PMS_P2;Temp;Humidity;BMP_temperature;BMP_pressure;BME280_temperature;BME280_humidity;BME280_pressure;Samples;Min_cycle;Max_cycle;Signal;HPM_P1;HPM_P2
2023/10/18 00:01:49;;;;;;;212.52;53.03;;;;;;;;;;4973224;28;20163;-46
2023/10/18 00:04:19;;;;;;;214.87;57.13;;;;;;;;;;4972825;28;20194;-46
2023/10/18 00:06:48;;;;;;;215.13;55.50;;;;;;;;;;4969386;28;20946;-45
2023/10/18 00:12:00;;;;;;;215.15;55.30;;;;;;;;;;4966835;28;20216;-45
2023/10/18 00:14:26;;;;;;;213.52;52.65;;;;;;;;;;4972689;28;20574;-46
2023/10/18 00:16:52;;;;;;;212.10;52.63;;;;;;;;;;4973117;28;20170;-46
2023/10/18 00:19:18;;;;;;;213.07;52.23;;;;;;;;;;4972853;28;20421;-45
2023/10/18 00:21:44;;;;;;;213.27;54.33;;;;;;;;;;4973027;28;20413;-46
2023/10/18 00:24:10;;;;;;;215.77;55.70;;;;;;;;;;4970638;28;20457;-46
2023/10/18 00:26:36;;;;;;;216.88;56.67;;;;;;;;;;4972670;28;20417;-46
2023/10/18 00:29:02;;;;;;;217.43;57.23;;;;;;;;;;4972951;28;20183;-46
2023/10/18 00:31:28;;;;;;;211.98;53.38;;;;;;;;;;4972938;28;20901;-46
2023/10/18 00:33:54;;;;;;;215.63;54.83;;;;;;;;;;4972270;28;20205;-46
2023/10/18 00:36:20;;;;;;;213.97;53.80;;;;;;;;;;4972792;28;20445;-45
2023/10/18 00:38:47;;;;;;;214.10;53.60;;;;;;;;;;4972949;28;20417;-46
2023/10/18 00:41:21;;;;;;;215.93;54.50;;;;;;;;;;4972792;28;20166;-46
2023/10/18 00:43:50;;;;;;;217.65;56.63;;;;;;;;;;4964867;28;20268;-47
2023/10/18 00:46:16;;;;;;;215.13;53.85;;;;;;;;;;4972931;28;20642;-46
2023/10/18 00:48:44;;;;;;;213.20;53.03;;;;;;;;;;4972769;28;20197;-46
2023/10/18 00:51:13;;;;;;;215.57;54.67;;;;;;;;;;4972871;28;20363;-46
2023/10/18 00:53:40;;;;;;;216.63;53.90;;;;;;;;;;4972337;28;20228;-46
2023/10/18 00:56:06;;;;;;;216.82;54.97;;;;;;;;;;4971373;28;20189;-46
2023/10/18 00:58:33;;;;;;;215.35;53.55;;;;;;;;;;4972539;28;20186;-46
2023/10/18 01:01:09;;;;;;;217.75;55.85;;;;;;;;;;4972710;28;20699;-46
2023/10/18 01:03:41;;;;;;;220.10;54.92;;;;;;;;;;4971305;28;20250;-45
2023/10/18 01:06:17;;;;;;;214.52;53.35;;;;;;;;;;4967251;28;20178;-46
2023/10/18 01:08:46;;;;;;;213.43;52.97;;;;;;;;;;4973015;28;20210;-47
2023/10/18 01:11:12;;;;;;;218.75;54.95;;;;;;;;;;4972505;28;20186;-46
2023/10/18 01:13:40;;;;;;;216.95;54.55;;;;;;;;;;4972280;28;20276;-47
2023/10/18 01:16:14;;;;;;;217.55;56.72;;;;;;;;;;4972470;28;20169;-47
2023/10/18 01:18:43;;;;;;;214.90;54.17;;;;;;;;;;4972509;28;20206;-47
2023/10/18 01:21:17;;;;;;;213.82;53.60;;;;;;;;;;4972669;28;20174;-46
2023/10/18 01:23:50;;;;;;;214.52;53.20;;;;;;;;;;4971960;28;20541;-45
2023/10/18 01:26:17;;;;;;;213.80;53.40;;;;;;;;;;4972450;28;20252;-46
2023/10/18 01:28:43;;;;;;;217.65;57.53;;;;;;;;;;4972526;28;20174;-46
2023/10/18 01:31:09;;;;;;;213.45;52.28;;;;;;;;;;4972580;28;20266;-46
2023/10/18 01:33:40;;;;;;;224.23;57.90;;;;;;;;;;4971453;28;20209;-46
2023/10/18 01:36:11;;;;;;;214.00;53.33;;;;;;;;;;4975582;28;20642;-46
2023/10/18 01:38:37;;;;;;;216.95;55.28;;;;;;;;;;4975873;28;20248;-46
2023/10/18 01:41:12;;;;;;;213.60;52.53;;;;;;;;;;4975883;28;20206;-47
2023/10/18 01:43:38;;;;;;;217.98;56.72;;;;;;;;;;4975426;28;20494;-46
2023/10/18 01:46:08;;;;;;;217.88;56.97;;;;;;;;;;4975749;28;20275;-46
2023/10/18 01:48:38;;;;;;;218.65;58.78;;;;;;;;;;4975673;28;20173;-47
2023/10/18 01:51:05;;;;;;;213.32;53.80;;;;;;;;;;4975761;28;20236;-46
2023/10/18 01:53:32;;;;;;;221.23;59.63;;;;;;;;;;4975188;28;20211;-46
2023/10/18 01:56:01;;;;;;;214.98;54.42;;;;;;;;;;4975551;28;20558;-46
2023/10/18 01:58:27;;;;;;;214.98;54.63;;;;;;;;;;4975483;28;20180;-46
2023/10/18 02:00:55;;;;;;;215.27;55.63;;;;;;;;;;4975506;28;20190;-46
2023/10/18 02:03:22;;;;;;;215.18;54.90;;;;;;;;;;4975053;28;20178;-47
2023/10/18 02:05:48;;;;;;;214.98;54.80;;;;;;;;;;4975260;28;20696;-46
2023/10/18 02:08:15;;;;;;;218.37;60.53;;;;;;;;;;4975367;28;20175;-46
2023/10/18 02:10:42;;;;;;;216.70;56.17;;;;;;;;;;4975270;28;20406;-46
2023/10/18 02:13:15;;;;;;;216.00;56.83;;;;;;;;;;4973583;28;20238;-46
2023/10/18 02:15:41;;;;;;;212.10;53.67;;;;;;;;;;4975027;28;20272;-46
2023/10/18 02:18:08;;;;;;;214.80;55.30;;;;;;;;;;4975423;28;20621;-46
2023/10/18 02:20:35;;;;;;;216.02;56.38;;;;;;;;;;4975099;28;20173;-46
2023/10/18 02:23:02;;;;;;;221.35;57.08;;;;;;;;;;4974941;28;20182;-46
2023/10/18 02:28:22;;;;;;;217.48;58.55;;;;;;;;;;4975246;28;20693;-47
2023/10/18 02:30:55;;;;;;;214.18;54.92;;;;;;;;;;4967503;28;20269;-47
2023/10/18 02:33:38;;;;;;;215.75;55.53;;;;;;;;;;4974410;28;20208;-46
2023/10/18 02:36:11;;;;;;;213.68;54.40;;;;;;;;;;4974764;28;20245;-47
2023/10/18 02:38:38;;;;;;;216.32;56.72;;;;;;;;;;4975002;28;20166;-47
2023/10/18 02:41:14;;;;;;;212.57;53.00;;;;;;;;;;4974755;28;20194;-47
2023/10/18 02:43:45;;;;;;;213.40;53.97;;;;;;;;;;4974241;28;20209;-47
2023/10/18 02:46:11;;;;;;;215.43;56.15;;;;;;;;;;4973751;28;20167;-47
2023/10/18 02:48:40;;;;;;;212.85;54.00;;;;;;;;;;4974443;28;20182;-47
2023/10/18 02:51:06;;;;;;;214.57;54.53;;;;;;;;;;4974592;28;20182;-46
2023/10/18 02:53:40;;;;;;;214.98;53.35;;;;;;;;;;4973947;28;20206;-47
2023/10/18 02:56:06;;;;;;;214.98;55.58;;;;;;;;;;4974446;28;20170;-47
2023/10/18 02:58:33;;;;;;;214.97;55.20;;;;;;;;;;4974577;28;20170;-47
2023/10/18 03:01:05;;;;;;;214.07;53.42;;;;;;;;;;4974371;28;20429;-47
2023/10/18 03:03:31;;;;;;;216.27;55.17;;;;;;;;;;4973896;28;20681;-47
2023/10/18 03:06:01;;;;;;;214.15;53.60;;;;;;;;;;4974081;28;20658;-47
2023/10/18 03:08:28;;;;;;;214.88;56.08;;;;;;;;;;4974110;28;20173;-47
2023/10/18 03:10:54;;;;;;;215.68;54.65;;;;;;;;;;4974094;28;20219;-47
2023/10/18 03:13:23;;;;;;;210.67;52.20;;;;;;;;;;4973634;28;20284;-47
2023/10/18 03:16:05;;;;;;;213.95;54.58;;;;;;;;;;4973987;28;20428;-46
2023/10/18 03:18:31;;;;;;;214.20;55.17;;;;;;;;;;4973962;28;20543;-47
2023/10/18 03:20:57;;;;;;;213.80;55.88;;;;;;;;;;4973926;28;20252;-46
2023/10/18 03:23:26;;;;;;;213.57;54.55;;;;;;;;;;4973494;28;20200;-46
2023/10/18 03:26:08;;;;;;;213.55;54.67;;;;;;;;;;4973939;28;20181;-47
2023/10/18 03:28:34;;;;;;;214.30;56.30;;;;;;;;;;4977453;28;20200;-46
2023/10/18 03:33:53;;;;;;;213.35;53.58;;;;;;;;;;4966111;28;20712;-47
2023/10/18 03:36:26;;;;;;;214.05;53.38;;;;;;;;;;4973607;28;20646;-48
2023/10/18 03:38:54;;;;;;;211.77;52.33;;;;;;;;;;4966778;28;20257;-47
2023/10/18 03:41:20;;;;;;;214.25;53.90;;;;;;;;;;4973450;28;20265;-47
2023/10/18 03:43:49;;;;;;;210.13;52.05;;;;;;;;;;4973260;28;20238;-47
2023/10/18 03:46:19;;;;;;;213.85;53.75;;;;;;;;;;4973410;28;20270;-47
2023/10/18 03:48:52;;;;;;;215.20;55.35;;;;;;;;;;4971386;28;20177;-48
2023/10/18 03:51:18;;;;;;;214.25;54.03;;;;;;;;;;4973474;28;20197;-48
2023/10/18 03:53:45;;;;;;;210.40;53.08;;;;;;;;;;4972792;28;20294;-47
2023/10/18 03:56:13;;;;;;;210.20;51.90;;;;;;;;;;4973335;28;20173;-47
2023/10/18 03:58:48;;;;;;;215.18;55.92;;;;;;;;;;4973068;28;20223;-47
2023/10/18 04:01:19;;;;;;;213.73;55.08;;;;;;;;;;4973284;28;20169;-48
2023/10/18 04:03:45;;;;;;;215.50;56.53;;;;;;;;;;4964985;28;20215;-48
2023/10/18 04:06:32;;;;;;;213.27;53.25;;;;;;;;;;4973107;28;20193;-48
2023/10/18 04:08:58;;;;;;;212.18;54.10;;;;;;;;;;4966869;28;20173;-48
2023/10/18 04:11:28;;;;;;;211.98;52.63;;;;;;;;;;4973083;28;20272;-48
2023/10/18 04:13:54;;;;;;;213.82;55.17;;;;;;;;;;4972642;28;20209;-47
2023/10/18 04:16:28;;;;;;;212.63;54.57;;;;;;;;;;4972965;28;20224;-46
2023/10/18 04:18:56;;;;;;;213.55;55.15;;;;;;;;;;4973046;28;20447;-47
2023/10/18 04:21:25;;;;;;;215.82;57.30;;;;;;;;;;4972770;28;20206;-47
2023/10/18 04:23:54;;;;;;;211.60;52.88;;;;;;;;;;4972550;28;20217;-47
2023/10/18 04:26:21;;;;;;;213.73;55.95;;;;;;;;;;4972898;28;20174;-47
2023/10/18 04:28:48;;;;;;;216.48;56.05;;;;;;;;;;4972945;28;20169;-47
2023/10/18 04:31:21;;;;;;;212.35;53.67;;;;;;;;;;4972957;28;20201;-47
2023/10/18 04:33:54;;;;;;;212.40;54.47;;;;;;;;;;4971544;28;20205;-47
2023/10/18 04:36:23;;;;;;;212.02;52.70;;;;;;;;;;4972874;28;20545;-48
2023/10/18 04:38:51;;;;;;;212.80;53.10;;;;;;;;;;4972762;28;20252;-48
2023/10/18 04:41:24;;;;;;;212.30;54.45;;;;;;;;;;4972777;28;20181;-47
2023/10/18 04:44:01;;;;;;;212.32;53.30;;;;;;;;;;4965051;28;20574;-47
2023/10/18 04:46:29;;;;;;;214.73;56.88;;;;;;;;;;4972698;28;20185;-48
2023/10/18 04:54:00;;;;;;;213.23;53.75;;;;;;;;;;4972363;28;20236;-46
2023/10/18 04:56:34;;;;;;;215.70;57.28;;;;;;;;;;4972658;28;20174;-48
2023/10/18 04:59:06;;;;;;;212.88;53.60;;;;;;;;;;4972605;28;20340;-47
2023/10/18 05:01:36;;;;;;;213.57;54.83;;;;;;;;;;4972587;28;20182;-47
2023/10/18 05:04:18;;;;;;;211.95;52.45;;;;;;;;;;4972230;28;20573;-46
2023/10/18 05:06:45;;;;;;;213.95;55.10;;;;;;;;;;4972426;28;20252;-47
2023/10/18 05:09:12;;;;;;;213.45;53.63;;;;;;;;;;4972854;28;20566;-47
2023/10/18 05:11:47;;;;;;;210.55;51.92;;;;;;;;;;4976170;28;20185;-47
2023/10/18 05:14:19;;;;;;;212.90;53.85;;;;;;;;;;4975979;28;20276;-47
2023/10/18 05:16:46;;;;;;;212.82;53.10;;;;;;;;;;4968387;28;20174;-46
2023/10/18 05:19:12;;;;;;;213.02;53.20;;;;;;;;;;4976415;28;20579;-46
2023/10/18 05:21:39;;;;;;;212.00;53.30;;;;;;;;;;4976148;28;20171;-46
2023/10/18 05:24:05;;;;;;;212.48;54.25;;;;;;;;;;4975740;28;20429;-47
2023/10/18 05:26:34;;;;;;;212.20;53.55;;;;;;;;;;4976292;28;20193;-49
2023/10/18 05:29:01;;;;;;;212.30;53.78;;;;;;;;;;4975962;28;20697;-48
2023/10/18 05:36:54;;;;;;;213.43;53.73;;;;;;;;;;4975924;28;20182;-48
2023/10/18 05:42:13;;;;;;;215.43;55.63;;;;;;;;;;4975792;28;20677;-47
2023/10/18 05:44:41;;;;;;;213.13;54.33;;;;;;;;;;4975238;28;20201;-48
2023/10/18 05:47:08;;;;;;;212.32;52.60;;;;;;;;;;4975703;28;20162;-47
2023/10/18 05:49:41;;;;;;;212.55;53.22;;;;;;;;;;4975624;28;20162;-48
2023/10/18 05:54:36;;;;;;;211.35;52.75;;;;;;;;;;4975297;28;20208;-47
2023/10/18 05:57:02;;;;;;;210.80;52.30;;;;;;;;;;4975510;28;20252;-47
2023/10/18 05:59:28;;;;;;;214.77;55.77;;;;;;;;;;4975255;28;20417;-48
2023/10/18 06:01:57;;;;;;;216.43;56.90;;;;;;;;;;4975378;28;20913;-46
2023/10/18 06:04:23;;;;;;;216.27;56.40;;;;;;;;;;4974955;28;20451;-47
2023/10/18 06:06:51;;;;;;;217.23;58.42;;;;;;;;;;4975183;28;20189;-47
2023/10/18 06:12:09;;;;;;;211.38;53.72;;;;;;;;;;4964194;28;20216;-46
2023/10/18 06:14:44;;;;;;;213.48;53.95;;;;;;;;;;4974846;28;20189;-47
2023/10/18 06:17:12;;;;;;;211.55;54.10;;;;;;;;;;4975162;28;20204;-47
2023/10/18 06:19:39;;;;;;;212.63;54.03;;;;;;;;;;4975031;28;20205;-47
2023/10/18 06:22:28;;;;;;;211.93;53.92;;;;;;;;;;4973699;28;20182;-47
2023/10/18 06:24:55;;;;;;;212.65;54.40;;;;;;;;;;4968236;28;20197;-47
2023/10/18 06:27:21;;;;;;;213.98;55.00;;;;;;;;;;4974885;28;20634;-47
2023/10/18 06:29:51;;;;;;;210.77;53.00;;;;;;;;;;4974880;28;20166;-47
2023/10/18 06:32:22;;;;;;;214.30;54.92;;;;;;;;;;4974738;28;20589;-47
2023/10/18 06:34:49;;;;;;;214.32;55.97;;;;;;;;;;4966896;28;20201;-47
2023/10/18 06:37:22;;;;;;;214.05;56.53;;;;;;;;;;4974881;28;20442;-47
2023/10/18 06:39:54;;;;;;;215.43;58.80;;;;;;;;;;4973780;28;20547;-47
2023/10/18 06:42:22;;;;;;;215.60;59.70;;;;;;;;;;4974638;28;20210;-47
2023/10/18 06:44:49;;;;;;;216.73;60.30;;;;;;;;;;4974358;28;20605;-47
2023/10/18 06:47:15;;;;;;;214.95;56.63;;;;;;;;;;4974469;28;20229;-47
2023/10/18 06:49:47;;;;;;;213.87;55.27;;;;;;;;;;4974469;28;20257;-48
2023/10/18 06:52:21;;;;;;;215.45;58.10;;;;;;;;;;4973113;28;20409;-48
2023/10/18 06:54:52;;;;;;;215.48;57.00;;;;;;;;;;4963941;28;20566;-48
2023/10/18 06:57:21;;;;;;;217.30;60.40;;;;;;;;;;4972949;28;20264;-47
2023/10/18 06:59:50;;;;;;;218.20;61.60;;;;;;;;;;4973605;28;20638;-47
2023/10/18 07:02:16;;;;;;;216.35;57.35;;;;;;;;;;4973041;28;20665;-46
2023/10/18 07:04:52;;;;;;;214.75;55.80;;;;;;;;;;4974373;28;20212;-47
2023/10/18 07:07:22;;;;;;;216.50;57.47;;;;;;;;;;4973939;28;20208;-47
2023/10/18 07:09:56;;;;;;;219.82;60.30;;;;;;;;;;4966656;28;20160;-47
2023/10/18 07:12:43;;;;;;;216.88;56.63;;;;;;;;;;4973860;28;20310;-47
2023/10/18 07:15:15;;;;;;;215.63;57.47;;;;;;;;;;4973819;28;20200;-47
2023/10/18 07:17:41;;;;;;;230.13;64.35;;;;;;;;;;4971542;28;20517;-46
2023/10/18 07:20:15;;;;;;;216.07;57.00;;;;;;;;;;4976952;28;20186;-47
2023/10/18 07:22:44;;;;;;;219.63;62.42;;;;;;;;;;4973504;28;20417;-46
2023/10/18 07:25:21;;;;;;;220.65;61.63;;;;;;;;;;4973871;28;20527;-47
2023/10/18 07:27:47;;;;;;;220.45;63.53;;;;;;;;;;4966260;28;20180;-48
2023/10/18 07:30:16;;;;;;;218.35;58.00;;;;;;;;;;4973795;28;20179;-47
2023/10/18 07:32:45;;;;;;;218.75;59.97;;;;;;;;;;4973011;28;20212;-48
2023/10/18 07:35:26;;;;;;;222.00;62.88;;;;;;;;;;4973420;28;20330;-47
2023/10/18 07:37:52;;;;;;;218.95;58.63;;;;;;;;;;4971602;28;20187;-47
2023/10/18 07:40:21;;;;;;;221.80;62.58;;;;;;;;;;4973481;28;20176;-47
2023/10/18 07:42:51;;;;;;;222.70;65.40;;;;;;;;;;4965591;28;20188;-46
2023/10/18 07:45:17;;;;;;;219.88;63.13;;;;;;;;;;4973385;28;20208;-48
2023/10/18 07:47:44;;;;;;;223.10;63.60;;;;;;;;;;4973125;28;20204;-47
2023/10/18 07:50:56;;;;;;;221.70;65.25;;;;;;;;;;4973672;28;20192;-47
2023/10/18 07:52:56;;;;;;;232.82;72.20;;;;;;;;;;4969374;28;20292;-47
2023/10/18 07:55:22;;;;;;;220.67;63.90;;;;;;;;;;4973259;28;20293;-47
2023/10/18 07:57:49;;;;;;;222.73;65.55;;;;;;;;;;4973227;28;20464;-47
2023/10/18 08:00:21;;;;;;;223.07;64.38;;;;;;;;;;4972873;28;20178;-46
2023/10/18 08:02:48;;;;;;;229.77;68.20;;;;;;;;;;4962469;28;20185;-47
2023/10/18 08:05:19;;;;;;;228.55;70.22;;;;;;;;;;4971475;28;20244;-48
2023/10/18 08:07:49;;;;;;;223.27;62.95;;;;;;;;;;4963823;28;20196;-48
2023/10/18 08:10:19;;;;;;;227.80;66.28;;;;;;;;;;4972079;28;20212;-47
2023/10/18 08:15:52;;;;;;;224.15;64.53;;;;;;;;;;4962345;28;20211;-47
2023/10/18 08:18:21;;;;;;;224.10;63.25;;;;;;;;;;4972773;28;20553;-47
2023/10/18 08:23:34;;;;;;;226.52;68.13;;;;;;;;;;4972504;28;20252;-46
2023/10/18 08:26:03;;;;;;;225.57;63.75;;;;;;;;;;4970163;28;20204;-49
2023/10/18 08:28:39;;;;;;;227.07;69.38;;;;;;;;;;4972875;28;20213;-48
2023/10/18 08:31:17;;;;;;;226.32;65.60;;;;;;;;;;4972829;28;20196;-47
2023/10/18 08:33:43;;;;;;;227.82;65.57;;;;;;;;;;4973256;28;20545;-48
2023/10/18 08:36:13;;;;;;;223.65;62.97;;;;;;;;;;4972829;28;20661;-48
2023/10/18 08:38:44;;;;;;;225.50;65.32;;;;;;;;;;4972780;28;20177;-48
2023/10/18 08:41:15;;;;;;;225.93;64.80;;;;;;;;;;4972779;28;20189;-47
2023/10/18 08:43:47;;;;;;;229.32;67.63;;;;;;;;;;4972284;28;20642;-46
2023/10/18 08:46:13;;;;;;;222.43;60.60;;;;;;;;;;4976445;28;20184;-49
2023/10/18 08:48:40;;;;;;;228.85;68.97;;;;;;;;;;4976928;28;20193;-49
2023/10/18 08:51:07;;;;;;;226.38;66.68;;;;;;;;;;4976706;28;20173;-48
2023/10/18 08:53:33;;;;;;;228.77;67.20;;;;;;;;;;4976238;28;20224;-48
2023/10/18 08:55:59;;;;;;;226.38;66.40;;;;;;;;;;4976678;28;20275;-47
2023/10/18 08:58:29;;;;;;;230.00;70.95;;;;;;;;;;4976441;28;20221;-49
2023/10/18 09:03:24;;;;;;;230.93;68.13;;;;;;;;;;4976357;28;20218;-48
2023/10/18 09:05:52;;;;;;;232.10;72.40;;;;;;;;;;4976518;28;20202;-48
2023/10/18 09:08:26;;;;;;;231.32;66.88;;;;;;;;;;4976464;28;20184;-48
2023/10/18 09:10:55;;;;;;;235.38;67.65;;;;;;;;;;4973667;28;20177;-49
2023/10/18 09:18:26;;;;;;;237.77;79.27;;;;;;;;;;4976352;28;20192;-49
2023/10/18 09:20:55;;;;;;;235.40;74.40;;;;;;;;;;4976157;28;20915;-49
2023/10/18 09:23:21;;;;;;;238.53;82.27;;;;;;;;;;4975758;28;20570;-48
2023/10/18 09:25:51;;;;;;;239.70;82.50;;;;;;;;;;4975992;28;20432;-48
2023/10/18 09:28:30;;;;;;;237.23;78.10;;;;;;;;;;4976090;28;20406;-49
2023/10/18 09:31:02;;;;;;;236.60;80.47;;;;;;;;;;4969752;28;20407;-48
2023/10/18 09:33:38;;;;;;;240.73;85.63;;;;;;;;;;4975565;28;20471;-48
2023/10/18 09:36:18;;;;;;;239.60;84.83;;;;;;;;;;4973361;28;20428;-49
2023/10/18 09:38:44;;;;;;;238.70;85.07;;;;;;;;;;4976222;28;20413;-49
2023/10/18 09:41:11;;;;;;;238.40;85.70;;;;;;;;;;4976055;28;20781;-48
2023/10/18 09:43:37;;;;;;;244.70;94.83;;;;;;;;;;4975419;28;20518;-49
2023/10/18 09:46:04;;;;;;;245.33;95.23;;;;;;;;;;4974173;28;20760;-48
2023/10/18 09:48:32;;;;;;;242.33;89.90;;;;;;;;;;4973765;28;20778;-48
2023/10/18 09:51:06;;;;;;;243.07;90.33;;;;;;;;;;4970167;28;20558;-48
2023/10/18 09:53:33;;;;;;;255.97;104.80;;;;;;;;;;4966729;28;20815;-48
2023/10/18 09:56:00;;;;;;;246.60;96.80;;;;;;;;;;4974284;28;20432;-48
2023/10/18 09:58:26;;;;;;;244.20;93.40;;;;;;;;;;4969620;28;20421;-49
2023/10/18 10:00:56;;;;;;;242.10;91.07;;;;;;;;;;4965331;28;20424;-48
2023/10/18 10:03:25;;;;;;;248.17;100.17;;;;;;;;;;4968392;28;20560;-49
2023/10/18 10:05:52;;;;;;;246.47;101.63;;;;;;;;;;4962437;28;20431;-49
2023/10/18 10:08:23;;;;;;;246.10;102.80;;;;;;;;;;4969181;28;20435;-49
2023/10/18 10:10:50;;;;;;;240.47;95.10;;;;;;;;;;4965587;28;20432;-48
2023/10/18 10:13:25;;;;;;;242.40;97.33;;;;;;;;;;4963974;28;20456;-49
2023/10/18 10:15:54;;;;;;;239.57;93.20;;;;;;;;;;4969366;28;20467;-48
2023/10/18 10:18:22;;;;;;;242.83;94.13;;;;;;;;;;4969551;28;20465;-48
2023/10/18 10:20:49;;;;;;;241.47;93.37;;;;;;;;;;4963543;28;20476;-48
2023/10/18 10:23:16;;;;;;;241.07;94.20;;;;;;;;;;4968459;28;20932;-49
2023/10/18 10:25:49;;;;;;;238.97;88.37;;;;;;;;;;4974855;28;20444;-49
2023/10/18 10:28:53;;;;;;;245.37;98.10;;;;;;;;;;4974960;28;20449;-49
2023/10/18 10:31:22;;;;;;;238.70;87.10;;;;;;;;;;4971059;28;20442;-49
2023/10/18 10:34:06;;;;;;;239.60;88.17;;;;;;;;;;4973767;28;20477;-48
2023/10/18 10:36:35;;;;;;;248.23;98.97;;;;;;;;;;4971460;28;20569;-48
2023/10/18 10:39:02;;;;;;;242.30;91.43;;;;;;;;;;4969550;28;20464;-48
2023/10/18 10:41:31;;;;;;;237.37;85.20;;;;;;;;;;4962737;28;20438;-48
2023/10/18 10:44:07;;;;;;;235.77;84.03;;;;;;;;;;4973711;28;20441;-48
2023/10/18 10:46:37;;;;;;;240.17;90.37;;;;;;;;;;4958769;28;20423;-48
2023/10/18 10:49:06;;;;;;;235.87;85.27;;;;;;;;;;4973978;28;20430;-49
2023/10/18 10:51:37;;;;;;;236.73;84.23;;;;;;;;;;4973560;28;20434;-48
2023/10/18 10:54:06;;;;;;;234.77;83.63;;;;;;;;;;4973332;28;20842;-49
2023/10/18 10:56:34;;;;;;;235.87;81.80;;;;;;;;;;4970766;28;20472;-48
2023/10/18 11:01:43;;;;;;;236.80;85.33;;;;;;;;;;4974244;28;20420;-48
2023/10/18 11:04:14;;;;;;;236.30;86.07;;;;;;;;;;4974230;28;20445;-48
2023/10/18 11:06:43;;;;;;;235.03;82.17;;;;;;;;;;4973803;28;20432;-48
2023/10/18 11:09:18;;;;;;;236.67;87.13;;;;;;;;;;4974254;28;20436;-48
2023/10/18 11:11:45;;;;;;;236.80;86.33;;;;;;;;;;4974126;28;20960;-48
2023/10/18 11:14:17;;;;;;;234.97;83.47;;;;;;;;;;4973907;28;20492;-49
2023/10/18 11:16:45;;;;;;;239.77;89.73;;;;;;;;;;4974333;28;20436;-48
2023/10/18 11:19:15;;;;;;;243.07;96.33;;;;;;;;;;4974216;28;20843;-48
2023/10/18 11:21:41;;;;;;;244.20;97.43;;;;;;;;;;4973525;28;20452;-48
2023/10/18 11:24:11;;;;;;;242.93;98.60;;;;;;;;;;4970461;28;20942;-48
2023/10/18 11:26:43;;;;;;;244.17;100.73;;;;;;;;;;4973697;28;20459;-49
2023/10/18 11:29:09;;;;;;;245.30;98.73;;;;;;;;;;4965293;28;20466;-48
2023/10/18 11:31:38;;;;;;;244.10;98.83;;;;;;;;;;4973057;28;20446;-49
2023/10/18 11:34:07;;;;;;;242.97;98.37;;;;;;;;;;4952469;28;20932;-49
2023/10/18 11:36:34;;;;;;;248.77;108.57;;;;;;;;;;4969961;28;20410;-49
2023/10/18 11:39:18;;;;;;;249.40;108.13;;;;;;;;;;4972656;28;20456;-49
2023/10/18 11:41:45;;;;;;;246.47;107.83;;;;;;;;;;4973061;28;20416;-50
2023/10/18 11:44:20;;;;;;;244.73;106.00;;;;;;;;;;4973560;28;20487;-49
2023/10/18 11:46:49;;;;;;;246.67;106.83;;;;;;;;;;4965895;28;20408;-50
2023/10/18 11:49:18;;;;;;;246.00;108.00;;;;;;;;;;4973544;28;20909;-49
2023/10/18 11:51:45;;;;;;;251.67;112.13;;;;;;;;;;4965620;28;20413;-49
2023/10/18 11:54:14;;;;;;;253.00;119.67;;;;;;;;;;4973118;28;20896;-48
2023/10/18 11:56:40;;;;;;;247.87;111.83;;;;;;;;;;4973350;28;20428;-49
2023/10/18 11:59:06;;;;;;;246.60;109.47;;;;;;;;;;4973423;28;20408;-49
2023/10/18 12:01:37;;;;;;;249.13;116.63;;;;;;;;;;4973201;28;20451;-48
2023/10/18 12:04:03;;;;;;;243.70;108.07;;;;;;;;;;4973007;28;20555;-48
2023/10/18 12:06:31;;;;;;;243.70;106.40;;;;;;;;;;4973108;28;20440;-48
2023/10/18 12:11:38;;;;;;;243.07;101.47;;;;;;;;;;4973130;28;20427;-48
2023/10/18 12:14:04;;;;;;;242.67;99.97;;;;;;;;;;4972819;28;20472;-48
2023/10/18 12:16:32;;;;;;;247.77;106.93;;;;;;;;;;4973531;28;20411;-48
2023/10/18 12:18:58;;;;;;;241.67;101.77;;;;;;;;;;4973321;28;20508;-48
2023/10/18 12:21:29;;;;;;;242.13;100.67;;;;;;;;;;4973051;28;20414;-49
2023/10/18 12:23:56;;;;;;;254.20;107.97;;;;;;;;;;4973088;28;20477;-48
2023/10/18 12:26:25;;;;;;;241.00;98.63;;;;;;;;;;4980263;28;20509;-48
2023/10/18 12:28:52;;;;;;;239.33;98.67;;;;;;;;;;4972836;28;20420;-48
2023/10/18 12:31:26;;;;;;;244.23;105.37;;;;;;;;;;4973002;28;20887;-49
2023/10/18 12:33:57;;;;;;;240.23;98.67;;;;;;;;;;4972698;28;20476;-48
2023/10/18 12:36:32;;;;;;;244.60;104.73;;;;;;;;;;4972873;28;20512;-49
2023/10/18 12:38:58;;;;;;;241.73;101.53;;;;;;;;;;4972960;28;20495;-48
2023/10/18 12:41:39;;;;;;;242.50;101.77;;;;;;;;;;4972796;28;20495;-48
2023/10/18 12:44:17;;;;;;;243.50;101.53;;;;;;;;;;4972552;28;20881;-48
2023/10/18 12:46:44;;;;;;;243.83;100.83;;;;;;;;;;4973053;28;21033;-48
2023/10/18 12:49:11;;;;;;;244.83;102.57;;;;;;;;;;4972851;28;20517;-49
2023/10/18 12:51:41;;;;;;;242.43;102.03;;;;;;;;;;4972895;28;20425;-49
2023/10/18 12:54:09;;;;;;;242.00;99.43;;;;;;;;;;4972407;28;20889;-48
2023/10/18 12:56:38;;;;;;;239.57;97.57;;;;;;;;;;4972904;28;20952;-48
2023/10/18 13:01:32;;;;;;;240.10;95.60;;;;;;;;;;4972972;28;20464;-49
2023/10/18 13:03:59;;;;;;;245.13;101.43;;;;;;;;;;4972516;28;20849;-48
2023/10/18 13:06:41;;;;;;;241.37;93.80;;;;;;;;;;4972395;28;20436;-48
2023/10/18 13:14:07;;;;;;;239.17;93.40;;;;;;;;;;4972308;28;21043;-49
2023/10/18 13:16:34;;;;;;;237.93;92.93;;;;;;;;;;4972622;28;20445;-52
2023/10/18 13:19:03;;;;;;;246.37;106.13;;;;;;;;;;4972505;28;20804;-48
2023/10/18 13:21:29;;;;;;;242.60;98.63;;;;;;;;;;4972535;28;20416;-48
2023/10/18 13:23:59;;;;;;;244.33;103.20;;;;;;;;;;4972244;28;20433;-49
2023/10/18 13:26:31;;;;;;;245.03;104.30;;;;;;;;;;4973018;28;20439;-49
2023/10/18 13:29:00;;;;;;;242.13;100.60;;;;;;;;;;4953391;28;20422;-48
2023/10/18 13:31:33;;;;;;;242.33;100.63;;;;;;;;;;4972334;28;20900;-49
2023/10/18 13:34:01;;;;;;;243.00;103.20;;;;;;;;;;4975975;28;20472;-48
2023/10/18 13:36:36;;;;;;;242.17;100.33;;;;;;;;;;4976320;28;20424;-56
2023/10/18 13:39:11;;;;;;;245.50;105.47;;;;;;;;;;4976062;28;20456;-49
2023/10/18 13:41:39;;;;;;;240.57;97.93;;;;;;;;;;4976072;28;20451;-49
2023/10/18 13:44:08;;;;;;;238.93;95.63;;;;;;;;;;4975469;28;20445;-48
2023/10/18 13:46:34;;;;;;;242.03;97.03;;;;;;;;;;4975955;28;20476;-48
2023/10/18 13:49:00;;;;;;;243.77;100.50;;;;;;;;;;4975821;28;20413;-48
2023/10/18 13:51:26;;;;;;;238.77;95.23;;;;;;;;;;4975832;28;20420;-49
2023/10/18 13:53:52;;;;;;;239.63;97.53;;;;;;;;;;4975413;28;20983;-48
2023/10/18 13:56:21;;;;;;;238.97;95.17;;;;;;;;;;4975593;28;20420;-48
2023/10/18 13:58:47;;;;;;;241.70;99.77;;;;;;;;;;4975635;28;20445;-49
2023/10/18 14:01:18;;;;;;;237.43;92.83;;;;;;;;;;4975564;28;20576;-49
2023/10/18 14:03:47;;;;;;;239.40;94.73;;;;;;;;;;4975340;28;20452;-48
2023/10/18 14:06:14;;;;;;;240.47;95.80;;;;;;;;;;4975498;28;20917;-48
2023/10/18 14:08:43;;;;;;;244.40;99.67;;;;;;;;;;4975429;28;20420;-48
2023/10/18 14:11:09;;;;;;;241.97;99.57;;;;;;;;;;4975518;28;20409;-49
2023/10/18 14:13:36;;;;;;;240.57;93.33;;;;;;;;;;4975096;28;20483;-49
2023/10/18 14:16:04;;;;;;;240.80;97.53;;;;;;;;;;4975428;28;20424;-48
2023/10/18 14:18:31;;;;;;;240.00;94.93;;;;;;;;;;4975389;28;20431;-48
2023/10/18 14:21:04;;;;;;;236.73;93.17;;;;;;;;;;4975416;28;20417;-49
2023/10/18 14:23:31;;;;;;;238.07;93.80;;;;;;;;;;4974844;28;20831;-48
2023/10/18 14:26:00;;;;;;;240.97;96.70;;;;;;;;;;4975272;28;20424;-49
2023/10/18 14:28:27;;;;;;;242.23;98.33;;;;;;;;;;4975259;28;20412;-49
2023/10/18 14:30:57;;;;;;;240.67;97.50;;;;;;;;;;4975425;28;20763;-48
2023/10/18 14:33:26;;;;;;;240.70;96.20;;;;;;;;;;4975483;28;20450;-48
2023/10/18 14:35:52;;;;;;;243.40;98.87;;;;;;;;;;4974974;28;20416;-49
2023/10/18 14:38:18;;;;;;;242.53;97.50;;;;;;;;;;4975125;28;20443;-49
2023/10/18 14:40:44;;;;;;;243.47;98.20;;;;;;;;;;4974891;28;20822;-49
2023/10/18 14:43:11;;;;;;;245.93;103.03;;;;;;;;;;4973825;28;20413;-49
2023/10/18 14:45:36;;;;;;;241.90;94.73;;;;;;;;;;4974692;28;20468;-48
2023/10/18 14:48:05;;;;;;;242.47;96.97;;;;;;;;;;4974781;28;20423;-48
2023/10/18 14:50:31;;;;;;;240.17;93.53;;;;;;;;;;4974659;28;20407;-47
2023/10/18 14:52:58;;;;;;;244.43;99.33;;;;;;;;;;4955014;29;20537;-48
2023/10/18 14:55:28;;;;;;;243.50;98.77;;;;;;;;;;4971881;28;20499;-49
2023/10/18 14:57:55;;;;;;;241.40;94.77;;;;;;;;;;4974697;28;20421;-49
2023/10/18 15:00:21;;;;;;;243.50;95.87;;;;;;;;;;4974547;28;20419;-48
2023/10/18 15:02:50;;;;;;;239.53;88.67;;;;;;;;;;4974304;28;20438;-47
2023/10/18 15:05:17;;;;;;;241.90;93.40;;;;;;;;;;4974178;28;20515;-48
2023/10/18 15:07:47;;;;;;;238.73;90.73;;;;;;;;;;4974249;28;20451;-49
2023/10/18 15:10:13;;;;;;;239.13;91.90;;;;;;;;;;4974427;28;20412;-49